sensor_id;sensor_type;location;lat;lon;timestamp;P1;durP1;ratioP1;P2;durP2;ratioP2
54452;SDS011;40363;52.270;10.546;2023-12-20T00:01:32;5.05;;;3.40;;
54452;SDS011;40363;52.270;10.546;2023-12-20T00:03:59;5.63;;;3.13;;
54452;SDS011;40363;52.270;10.546;2023-12-20T00:06:26;6.43;;;3.35;;
54452;SDS011;40363;52.270;10.546;2023-12-20T00:08:53;7.40;;;4.53;;
54452;SDS011;40363;52.270;10.546;2023-12-20T00:11:19;7.07;;;3.83;;
54452;SDS011;40363;52.270;10.546;2023-12-20T00:13:47;6.90;;;4.10;;
54452;SDS011;40363;52.270;10.546;2023-12-20T00:16:14;6.72;;;3.88;;
54452;SDS011;40363;52.270;10.546;2023-12-20T00:18:40;6.15;;;3.65;;
54452;SDS011;40363;52.270;10.546;2023-12-20T00:21:07;8.27;;;4.53;;
54452;SDS011;40363;52.270;10.546;2023-12-20T00:23:34;7.90;;;3.90;;
54452;SDS011;40363;52.270;10.546;2023-12-20T00:26:00;6.85;;;4.15;;
54452;SDS011;40363;52.270;10.546;2023-12-20T00:28:27;10.18;;;5.45;;
54452;SDS011;40363;52.270;10.546;2023-12-20T00:30:55;7.65;;;3.90;;
54452;SDS011;40363;52.270;10.546;2023-12-20T00:33:22;8.00;;;4.78;;
54452;SDS011;40363;52.270;10.546;2023-12-20T00:35:48;9.23;;;4.70;;
54452;SDS011;40363;52.270;10.546;2023-12-20T00:38:15;7.78;;;4.78;;
54452;SDS011;40363;52.270;10.546;2023-12-20T00:40:42;8.85;;;3.92;;
54452;SDS011;40363;52.270;10.546;2023-12-20T00:43:09;9.40;;;4.35;;
54452;SDS011;40363;52.270;10.546;2023-12-20T00:45:35;9.07;;;4.88;;
54452;SDS011;40363;52.270;10.546;2023-12-20T00:48:03;7.43;;;4.30;;
54452;SDS011;40363;52.270;10.546;2023-12-20T00:50:30;10.27;;;5.07;;
54452;SDS011;40363;52.270;10.546;2023-12-20T00:52:57;9.38;;;4.57;;
54452;SDS011;40363;52.270;10.546;2023-12-20T00:55:24;8.63;;;4.97;;
54452;SDS011;40363;52.270;10.546;2023-12-20T00:57:51;9.60;;;5.45;;
54452;SDS011;40363;52.270;10.546;2023-12-20T01:00:18;10.18;;;5.05;;
54452;SDS011;40363;52.270;10.546;2023-12-20T01:02:45;9.00;;;4.75;;
54452;SDS011;40363;52.270;10.546;2023-12-20T01:05:16;9.98;;;5.43;;
54452;SDS011;40363;52.270;10.546;2023-12-20T01:07:44;9.82;;;4.40;;
54452;SDS011;40363;52.270;10.546;2023-12-20T01:10:10;10.63;;;5.78;;
54452;SDS011;40363;52.270;10.546;2023-12-20T01:12:37;10.20;;;4.60;;
54452;SDS011;40363;52.270;10.546;2023-12-20T01:15:04;10.00;;;5.57;;
54452;SDS011;40363;52.270;10.546;2023-12-20T01:17:31;11.23;;;4.88;;
54452;SDS011;40363;52.270;10.546;2023-12-20T01:19:58;9.63;;;4.72;;
54452;SDS011;40363;52.270;10.546;2023-12-20T01:22:26;15.55;;;7.68;;
54452;SDS011;40363;52.270;10.546;2023-12-20T01:24:53;8.98;;;4.55;;
54452;SDS011;40363;52.270;10.546;2023-12-20T01:27:19;7.68;;;4.28;;
54452;SDS011;40363;52.270;10.546;2023-12-20T01:29:46;9.27;;;4.63;;
54452;SDS011;40363;52.270;10.546;2023-12-20T01:32:13;14.57;;;5.40;;
54452;SDS011;40363;52.270;10.546;2023-12-20T01:34:39;9.40;;;4.55;;
54452;SDS011;40363;52.270;10.546;2023-12-20T01:37:06;10.57;;;4.05;;
54452;SDS011;40363;52.270;10.546;2023-12-20T01:39:34;12.90;;;4.40;;
54452;SDS011;40363;52.270;10.546;2023-12-20T01:42:00;8.52;;;4.55;;
54452;SDS011;40363;52.270;10.546;2023-12-20T01:44:27;11.65;;;3.88;;
54452;SDS011;40363;52.270;10.546;2023-12-20T01:46:54;8.18;;;3.63;;
54452;SDS011;40363;52.270;10.546;2023-12-20T01:49:21;5.78;;;3.13;;
54452;SDS011;40363;52.270;10.546;2023-12-20T01:51:49;11.07;;;3.30;;
54452;SDS011;40363;52.270;10.546;2023-12-20T01:54:16;6.55;;;3.00;;
54452;SDS011;40363;52.270;10.546;2023-12-20T01:56:46;6.70;;;3.20;;
54452;SDS011;40363;52.270;10.546;2023-12-20T01:59:15;10.77;;;3.40;;
54452;SDS011;40363;52.270;10.546;2023-12-20T02:01:41;8.07;;;2.97;;
54452;SDS011;40363;52.270;10.546;2023-12-20T02:04:08;12.20;;;3.03;;
54452;SDS011;40363;52.270;10.546;2023-12-20T02:06:35;5.35;;;2.60;;
54452;SDS011;40363;52.270;10.546;2023-12-20T02:09:02;7.28;;;2.80;;
54452;SDS011;40363;52.270;10.546;2023-12-20T02:11:29;8.57;;;2.83;;
54452;SDS011;40363;52.270;10.546;2023-12-20T02:13:57;9.32;;;2.53;;
54452;SDS011;40363;52.270;10.546;2023-12-20T02:16:24;10.30;;;2.70;;
54452;SDS011;40363;52.270;10.546;2023-12-20T02:18:51;5.28;;;2.63;;
54452;SDS011;40363;52.270;10.546;2023-12-20T02:21:18;7.10;;;3.00;;
54452;SDS011;40363;52.270;10.546;2023-12-20T02:23:45;7.97;;;2.53;;
54452;SDS011;40363;52.270;10.546;2023-12-20T02:26:12;8.18;;;2.47;;
54452;SDS011;40363;52.270;10.546;2023-12-20T02:28:40;7.68;;;2.05;;
54452;SDS011;40363;52.270;10.546;2023-12-20T02:31:07;14.63;;;2.20;;
54452;SDS011;40363;52.270;10.546;2023-12-20T02:33:33;4.22;;;1.77;;
54452;SDS011;40363;52.270;10.546;2023-12-20T02:36:00;7.18;;;3.00;;
54452;SDS011;40363;52.270;10.546;2023-12-20T02:38:26;7.57;;;2.53;;
54452;SDS011;40363;52.270;10.546;2023-12-20T02:40:54;7.32;;;2.08;;
54452;SDS011;40363;52.270;10.546;2023-12-20T02:43:21;7.18;;;1.90;;
54452;SDS011;40363;52.270;10.546;2023-12-20T02:45:48;10.65;;;2.05;;
54452;SDS011;40363;52.270;10.546;2023-12-20T02:48:14;5.93;;;2.20;;
54452;SDS011;40363;52.270;10.546;2023-12-20T02:50:41;9.23;;;2.05;;
54452;SDS011;40363;52.270;10.546;2023-12-20T02:53:08;8.80;;;1.75;;
54452;SDS011;40363;52.270;10.546;2023-12-20T02:55:34;7.00;;;1.83;;
54452;SDS011;40363;52.270;10.546;2023-12-20T02:58:02;4.72;;;1.27;;
54452;SDS011;40363;52.270;10.546;2023-12-20T03:00:29;7.00;;;1.40;;
54452;SDS011;40363;52.270;10.546;2023-12-20T03:02:56;5.32;;;1.17;;
54452;SDS011;40363;52.270;10.546;2023-12-20T03:05:21;2.63;;;1.15;;
54452;SDS011;40363;52.270;10.546;2023-12-20T03:07:48;5.85;;;1.80;;
54452;SDS011;40363;52.270;10.546;2023-12-20T03:10:15;4.18;;;1.25;;
54452;SDS011;40363;52.270;10.546;2023-12-20T03:12:42;4.43;;;1.50;;
54452;SDS011;40363;52.270;10.546;2023-12-20T03:15:10;2.83;;;0.93;;
54452;SDS011;40363;52.270;10.546;2023-12-20T03:17:37;6.00;;;1.42;;
54452;SDS011;40363;52.270;10.546;2023-12-20T03:20:04;5.45;;;1.33;;
54452;SDS011;40363;52.270;10.546;2023-12-20T03:22:31;3.28;;;1.05;;
54452;SDS011;40363;52.270;10.546;2023-12-20T03:24:58;3.70;;;1.40;;
54452;SDS011;40363;52.270;10.546;2023-12-20T03:27:24;8.85;;;1.33;;
54452;SDS011;40363;52.270;10.546;2023-12-20T03:29:51;10.80;;;2.00;;
54452;SDS011;40363;52.270;10.546;2023-12-20T03:32:19;1.67;;;0.93;;
54452;SDS011;40363;52.270;10.546;2023-12-20T03:34:45;6.05;;;1.08;;
54452;SDS011;40363;52.270;10.546;2023-12-20T03:37:13;5.15;;;1.48;;
54452;SDS011;40363;52.270;10.546;2023-12-20T03:39:40;4.30;;;1.30;;
54452;SDS011;40363;52.270;10.546;2023-12-20T03:42:06;3.20;;;1.15;;
54452;SDS011;40363;52.270;10.546;2023-12-20T03:44:33;4.93;;;2.28;;
54452;SDS011;40363;52.270;10.546;2023-12-20T03:46:59;5.13;;;1.67;;
54452;SDS011;40363;52.270;10.546;2023-12-20T03:49:28;2.70;;;1.20;;
54452;SDS011;40363;52.270;10.546;2023-12-20T03:51:54;1.90;;;1.00;;
54452;SDS011;40363;52.270;10.546;2023-12-20T03:54:21;3.90;;;1.48;;
54452;SDS011;40363;52.270;10.546;2023-12-20T03:56:48;2.90;;;0.77;;
54452;SDS011;40363;52.270;10.546;2023-12-20T03:59:15;3.65;;;0.88;;
54452;SDS011;40363;52.270;10.546;2023-12-20T04:01:43;4.90;;;0.80;;
54452;SDS011;40363;52.270;10.546;2023-12-20T04:04:10;3.80;;;1.05;;
54452;SDS011;40363;52.270;10.546;2023-12-20T04:06:38;6.13;;;0.90;;
54452;SDS011;40363;52.270;10.546;2023-12-20T04:09:06;5.03;;;1.10;;
54452;SDS011;40363;52.270;10.546;2023-12-20T04:11:34;2.85;;;1.00;;
54452;SDS011;40363;52.270;10.546;2023-12-20T04:14:00;8.10;;;1.10;;
54452;SDS011;40363;52.270;10.546;2023-12-20T04:16:27;3.95;;;1.17;;
54452;SDS011;40363;52.270;10.546;2023-12-20T04:18:54;3.05;;;0.73;;
54452;SDS011;40363;52.270;10.546;2023-12-20T04:21:20;3.75;;;0.77;;
54452;SDS011;40363;52.270;10.546;2023-12-20T04:23:48;7.30;;;0.90;;
54452;SDS011;40363;52.270;10.546;2023-12-20T04:26:15;1.98;;;0.85;;
54452;SDS011;40363;52.270;10.546;2023-12-20T04:28:42;5.30;;;0.90;;
54452;SDS011;40363;52.270;10.546;2023-12-20T04:31:08;2.60;;;0.77;;
54452;SDS011;40363;52.270;10.546;2023-12-20T04:33:35;0.82;;;0.60;;
54452;SDS011;40363;52.270;10.546;2023-12-20T04:36:01;4.90;;;0.80;;
54452;SDS011;40363;52.270;10.546;2023-12-20T04:38:29;2.50;;;0.88;;
54452;SDS011;40363;52.270;10.546;2023-12-20T04:40:57;4.63;;;1.10;;
54452;SDS011;40363;52.270;10.546;2023-12-20T04:43:24;6.88;;;1.30;;
54452;SDS011;40363;52.270;10.546;2023-12-20T04:45:50;4.35;;;1.08;;
54452;SDS011;40363;52.270;10.546;2023-12-20T04:48:17;3.42;;;1.15;;
54452;SDS011;40363;52.270;10.546;2023-12-20T04:50:43;1.60;;;0.90;;
54452;SDS011;40363;52.270;10.546;2023-12-20T04:53:10;2.88;;;1.20;;
54452;SDS011;40363;52.270;10.546;2023-12-20T04:55:37;6.15;;;1.10;;
54452;SDS011;40363;52.270;10.546;2023-12-20T04:58:04;4.60;;;1.40;;
54452;SDS011;40363;52.270;10.546;2023-12-20T05:00:30;5.35;;;0.73;;
54452;SDS011;40363;52.270;10.546;2023-12-20T05:02:57;6.25;;;1.05;;
54452;SDS011;40363;52.270;10.546;2023-12-20T05:05:24;9.13;;;1.45;;
54452;SDS011;40363;52.270;10.546;2023-12-20T05:07:50;3.95;;;0.93;;
54452;SDS011;40363;52.270;10.546;2023-12-20T05:10:17;5.43;;;1.05;;
54452;SDS011;40363;52.270;10.546;2023-12-20T05:12:44;3.38;;;0.75;;
54452;SDS011;40363;52.270;10.546;2023-12-20T05:15:12;6.57;;;1.00;;
54452;SDS011;40363;52.270;10.546;2023-12-20T05:17:38;4.45;;;0.68;;
54452;SDS011;40363;52.270;10.546;2023-12-20T05:20:06;4.32;;;1.25;;
54452;SDS011;40363;52.270;10.546;2023-12-20T05:22:33;2.95;;;0.95;;
54452;SDS011;40363;52.270;10.546;2023-12-20T05:25:00;13.27;;;1.52;;
54452;SDS011;40363;52.270;10.546;2023-12-20T05:27:27;3.45;;;0.88;;
54452;SDS011;40363;52.270;10.546;2023-12-20T05:29:53;1.65;;;0.80;;
54452;SDS011;40363;52.270;10.546;2023-12-20T05:32:24;2.03;;;0.73;;
54452;SDS011;40363;52.270;10.546;2023-12-20T05:34:50;3.08;;;0.65;;
54452;SDS011;40363;52.270;10.546;2023-12-20T05:37:17;2.25;;;0.60;;
54452;SDS011;40363;52.270;10.546;2023-12-20T05:39:43;6.20;;;1.10;;
54452;SDS011;40363;52.270;10.546;2023-12-20T05:42:10;6.18;;;1.38;;
54452;SDS011;40363;52.270;10.546;2023-12-20T05:44:37;7.32;;;1.42;;
54452;SDS011;40363;52.270;10.546;2023-12-20T05:47:03;7.57;;;1.48;;
54452;SDS011;40363;52.270;10.546;2023-12-20T05:49:31;2.88;;;1.50;;
54452;SDS011;40363;52.270;10.546;2023-12-20T05:51:58;4.68;;;0.80;;
54452;SDS011;40363;52.270;10.546;2023-12-20T05:54:25;5.78;;;1.58;;
54452;SDS011;40363;52.270;10.546;2023-12-20T05:56:51;11.50;;;1.42;;
54452;SDS011;40363;52.270;10.546;2023-12-20T05:59:18;9.32;;;2.30;;
54452;SDS011;40363;52.270;10.546;2023-12-20T06:01:44;3.58;;;1.60;;
54452;SDS011;40363;52.270;10.546;2023-12-20T06:04:11;4.53;;;1.60;;
54452;SDS011;40363;52.270;10.546;2023-12-20T06:06:41;6.10;;;1.42;;
54452;SDS011;40363;52.270;10.546;2023-12-20T06:09:09;9.57;;;1.85;;
54452;SDS011;40363;52.270;10.546;2023-12-20T06:11:35;6.13;;;1.27;;
54452;SDS011;40363;52.270;10.546;2023-12-20T06:14:02;2.92;;;1.63;;
54452;SDS011;40363;52.270;10.546;2023-12-20T06:16:29;7.38;;;1.55;;
54452;SDS011;40363;52.270;10.546;2023-12-20T06:18:55;8.20;;;1.55;;
54452;SDS011;40363;52.270;10.546;2023-12-20T06:21:22;3.22;;;1.33;;
54452;SDS011;40363;52.270;10.546;2023-12-20T06:23:50;6.22;;;1.45;;
54452;SDS011;40363;52.270;10.546;2023-12-20T06:26:17;3.72;;;1.30;;
54452;SDS011;40363;52.270;10.546;2023-12-20T06:28:43;4.25;;;1.27;;
54452;SDS011;40363;52.270;10.546;2023-12-20T06:31:10;2.65;;;1.30;;
54452;SDS011;40363;52.270;10.546;2023-12-20T06:33:37;1.85;;;1.35;;
54452;SDS011;40363;52.270;10.546;2023-12-20T06:36:05;14.25;;;1.88;;
54452;SDS011;40363;52.270;10.546;2023-12-20T06:38:32;4.18;;;1.38;;
54452;SDS011;40363;52.270;10.546;2023-12-20T06:41:00;9.13;;;1.75;;
54452;SDS011;40363;52.270;10.546;2023-12-20T06:43:27;9.95;;;1.88;;
54452;SDS011;40363;52.270;10.546;2023-12-20T06:45:54;8.90;;;1.40;;
54452;SDS011;40363;52.270;10.546;2023-12-20T06:48:20;9.40;;;2.17;;
54452;SDS011;40363;52.270;10.546;2023-12-20T06:50:47;8.18;;;1.75;;
54452;SDS011;40363;52.270;10.546;2023-12-20T06:53:14;5.55;;;1.42;;
54452;SDS011;40363;52.270;10.546;2023-12-20T06:55:40;8.57;;;2.50;;
54452;SDS011;40363;52.270;10.546;2023-12-20T06:58:08;5.95;;;1.80;;
54452;SDS011;40363;52.270;10.546;2023-12-20T07:00:35;7.32;;;1.45;;
54452;SDS011;40363;52.270;10.546;2023-12-20T07:03:02;5.80;;;1.70;;
54452;SDS011;40363;52.270;10.546;2023-12-20T07:05:29;5.07;;;1.70;;
54452;SDS011;40363;52.270;10.546;2023-12-20T07:07:55;9.27;;;1.98;;
54452;SDS011;40363;52.270;10.546;2023-12-20T07:10:22;8.57;;;1.42;;
54452;SDS011;40363;52.270;10.546;2023-12-20T07:12:49;5.40;;;1.45;;
54452;SDS011;40363;52.270;10.546;2023-12-20T07:15:17;7.68;;;1.58;;
54452;SDS011;40363;52.270;10.546;2023-12-20T07:17:44;6.32;;;1.80;;
54452;SDS011;40363;52.270;10.546;2023-12-20T07:20:11;13.82;;;2.35;;
54452;SDS011;40363;52.270;10.546;2023-12-20T07:22:38;6.32;;;1.42;;
54452;SDS011;40363;52.270;10.546;2023-12-20T07:25:05;7.80;;;2.22;;
54452;SDS011;40363;52.270;10.546;2023-12-20T07:27:32;9.98;;;3.92;;
54452;SDS011;40363;52.270;10.546;2023-12-20T07:29:59;7.55;;;1.88;;
54452;SDS011;40363;52.270;10.546;2023-12-20T07:32:27;5.07;;;2.15;;
54452;SDS011;40363;52.270;10.546;2023-12-20T07:34:54;11.70;;;1.75;;
54452;SDS011;40363;52.270;10.546;2023-12-20T07:37:21;11.18;;;2.88;;
54452;SDS011;40363;52.270;10.546;2023-12-20T07:39:48;4.53;;;2.08;;
54452;SDS011;40363;52.270;10.546;2023-12-20T07:42:15;10.80;;;1.80;;
54452;SDS011;40363;52.270;10.546;2023-12-20T07:44:42;9.43;;;2.78;;
54452;SDS011;40363;52.270;10.546;2023-12-20T07:47:08;9.55;;;1.98;;
54452;SDS011;40363;52.270;10.546;2023-12-20T07:49:38;3.60;;;1.67;;
54452;SDS011;40363;52.270;10.546;2023-12-20T07:52:05;9.57;;;2.28;;
54452;SDS011;40363;52.270;10.546;2023-12-20T07:54:33;12.23;;;1.95;;
54452;SDS011;40363;52.270;10.546;2023-12-20T07:56:59;5.32;;;2.13;;
54452;SDS011;40363;52.270;10.546;2023-12-20T07:59:26;3.20;;;1.63;;
54452;SDS011;40363;52.270;10.546;2023-12-20T08:01:53;9.15;;;1.92;;
54452;SDS011;40363;52.270;10.546;2023-12-20T08:04:20;4.60;;;2.08;;
54452;SDS011;40363;52.270;10.546;2023-12-20T08:06:48;9.38;;;4.07;;
54452;SDS011;40363;52.270;10.546;2023-12-20T08:09:16;5.10;;;2.38;;
54452;SDS011;40363;52.270;10.546;2023-12-20T08:11:44;5.28;;;2.47;;
54452;SDS011;40363;52.270;10.546;2023-12-20T08:14:11;4.47;;;1.70;;
54452;SDS011;40363;52.270;10.546;2023-12-20T08:16:38;6.45;;;2.40;;
54452;SDS011;40363;52.270;10.546;2023-12-20T08:19:05;5.45;;;2.15;;
54452;SDS011;40363;52.270;10.546;2023-12-20T08:21:31;6.18;;;1.95;;
54452;SDS011;40363;52.270;10.546;2023-12-20T08:23:59;9.77;;;2.13;;
54452;SDS011;40363;52.270;10.546;2023-12-20T08:28:57;9.90;;;3.20;;
54452;SDS011;40363;52.270;10.546;2023-12-20T08:31:24;6.90;;;2.67;;
54452;SDS011;40363;52.270;10.546;2023-12-20T08:33:51;5.00;;;1.77;;
54452;SDS011;40363;52.270;10.546;2023-12-20T08:36:18;8.52;;;2.22;;
54452;SDS011;40363;52.270;10.546;2023-12-20T08:38:46;6.78;;;1.95;;
54452;SDS011;40363;52.270;10.546;2023-12-20T08:41:15;9.30;;;2.58;;
54452;SDS011;40363;52.270;10.546;2023-12-20T08:43:42;8.32;;;2.45;;
54452;SDS011;40363;52.270;10.546;2023-12-20T08:46:09;4.53;;;1.50;;
54452;SDS011;40363;52.270;10.546;2023-12-20T08:48:36;7.30;;;1.60;;
54452;SDS011;40363;52.270;10.546;2023-12-20T08:51:03;5.32;;;1.33;;
54452;SDS011;40363;52.270;10.546;2023-12-20T08:53:32;7.00;;;1.80;;
54452;SDS011;40363;52.270;10.546;2023-12-20T08:55:59;10.40;;;2.03;;
54452;SDS011;40363;52.270;10.546;2023-12-20T08:58:28;5.63;;;2.28;;
54452;SDS011;40363;52.270;10.546;2023-12-20T09:00:55;7.95;;;2.25;;
54452;SDS011;40363;52.270;10.546;2023-12-20T09:03:22;7.22;;;2.00;;
54452;SDS011;40363;52.270;10.546;2023-12-20T09:05:49;5.35;;;1.88;;
54452;SDS011;40363;52.270;10.546;2023-12-20T09:08:16;6.25;;;1.90;;
54452;SDS011;40363;52.270;10.546;2023-12-20T09:10:42;9.35;;;2.28;;
54452;SDS011;40363;52.270;10.546;2023-12-20T09:13:09;5.90;;;2.30;;
54452;SDS011;40363;52.270;10.546;2023-12-20T09:15:37;7.90;;;2.10;;
54452;SDS011;40363;52.270;10.546;2023-12-20T09:18:04;2.58;;;1.42;;
54452;SDS011;40363;52.270;10.546;2023-12-20T09:20:31;10.20;;;2.20;;
54452;SDS011;40363;52.270;10.546;2023-12-20T09:22:58;7.22;;;2.13;;
54452;SDS011;40363;52.270;10.546;2023-12-20T09:25:25;7.20;;;2.40;;
54452;SDS011;40363;52.270;10.546;2023-12-20T09:27:52;10.20;;;2.78;;
54452;SDS011;40363;52.270;10.546;2023-12-20T09:30:18;5.85;;;1.63;;
54452;SDS011;40363;52.270;10.546;2023-12-20T09:32:47;9.38;;;1.83;;
54452;SDS011;40363;52.270;10.546;2023-12-20T09:35:13;5.07;;;1.88;;
54452;SDS011;40363;52.270;10.546;2023-12-20T09:37:40;7.10;;;2.25;;
54452;SDS011;40363;52.270;10.546;2023-12-20T09:40:10;5.30;;;1.80;;
54452;SDS011;40363;52.270;10.546;2023-12-20T09:42:39;6.45;;;1.75;;
54452;SDS011;40363;52.270;10.546;2023-12-20T09:45:15;8.32;;;2.10;;
54452;SDS011;40363;52.270;10.546;2023-12-20T09:47:47;4.03;;;1.25;;
54452;SDS011;40363;52.270;10.546;2023-12-20T09:50:15;6.60;;;1.90;;
54452;SDS011;40363;52.270;10.546;2023-12-20T09:52:44;2.60;;;1.20;;
54452;SDS011;40363;52.270;10.546;2023-12-20T09:55:15;5.93;;;2.08;;
54452;SDS011;40363;52.270;10.546;2023-12-20T09:57:44;5.30;;;1.77;;
54452;SDS011;40363;52.270;10.546;2023-12-20T10:00:11;8.68;;;2.63;;
54452;SDS011;40363;52.270;10.546;2023-12-20T10:02:38;4.05;;;2.25;;
54452;SDS011;40363;52.270;10.546;2023-12-20T10:05:15;3.10;;;1.38;;
54452;SDS011;40363;52.270;10.546;2023-12-20T10:07:44;4.07;;;1.48;;
54452;SDS011;40363;52.270;10.546;2023-12-20T10:10:11;2.22;;;1.38;;
54452;SDS011;40363;52.270;10.546;2023-12-20T10:12:39;6.18;;;1.25;;
54452;SDS011;40363;52.270;10.546;2023-12-20T10:15:06;10.65;;;1.75;;
54452;SDS011;40363;52.270;10.546;2023-12-20T10:17:33;15.10;;;2.63;;
54452;SDS011;40363;52.270;10.546;2023-12-20T10:19:59;5.18;;;1.63;;
54452;SDS011;40363;52.270;10.546;2023-12-20T10:22:28;6.57;;;1.60;;
54452;SDS011;40363;52.270;10.546;2023-12-20T10:24:56;4.07;;;1.38;;
54452;SDS011;40363;52.270;10.546;2023-12-20T10:27:22;8.57;;;1.58;;
54452;SDS011;40363;52.270;10.546;2023-12-20T10:29:49;5.25;;;1.98;;
54452;SDS011;40363;52.270;10.546;2023-12-20T10:32:21;3.45;;;1.85;;
54452;SDS011;40363;52.270;10.546;2023-12-20T10:34:49;5.95;;;2.50;;
54452;SDS011;40363;52.270;10.546;2023-12-20T10:37:16;5.85;;;2.05;;
54452;SDS011;40363;52.270;10.546;2023-12-20T10:39:46;4.13;;;1.60;;
54452;SDS011;40363;52.270;10.546;2023-12-20T10:42:22;4.72;;;1.48;;
54452;SDS011;40363;52.270;10.546;2023-12-20T10:44:52;4.78;;;2.88;;
54452;SDS011;40363;52.270;10.546;2023-12-20T10:47:19;8.85;;;1.27;;
54452;SDS011;40363;52.270;10.546;2023-12-20T10:49:46;5.22;;;1.50;;
54452;SDS011;40363;52.270;10.546;2023-12-20T10:52:13;7.47;;;2.03;;
54452;SDS011;40363;52.270;10.546;2023-12-20T10:54:40;2.42;;;1.55;;
54452;SDS011;40363;52.270;10.546;2023-12-20T10:57:08;6.88;;;2.10;;
54452;SDS011;40363;52.270;10.546;2023-12-20T10:59:36;3.72;;;2.08;;
54452;SDS011;40363;52.270;10.546;2023-12-20T11:02:03;9.32;;;2.05;;
54452;SDS011;40363;52.270;10.546;2023-12-20T11:04:34;7.32;;;2.10;;
54452;SDS011;40363;52.270;10.546;2023-12-20T11:07:07;4.30;;;2.10;;
54452;SDS011;40363;52.270;10.546;2023-12-20T11:09:44;7.90;;;1.77;;
54452;SDS011;40363;52.270;10.546;2023-12-20T11:12:17;7.38;;;1.92;;
54452;SDS011;40363;52.270;10.546;2023-12-20T11:14:53;4.38;;;2.08;;
54452;SDS011;40363;52.270;10.546;2023-12-20T11:17:22;4.90;;;2.10;;
54452;SDS011;40363;52.270;10.546;2023-12-20T11:20:08;8.00;;;2.20;;
54452;SDS011;40363;52.270;10.546;2023-12-20T11:22:39;10.18;;;2.42;;
54452;SDS011;40363;52.270;10.546;2023-12-20T11:25:17;7.43;;;2.08;;
54452;SDS011;40363;52.270;10.546;2023-12-20T11:27:47;6.00;;;2.28;;
54452;SDS011;40363;52.270;10.546;2023-12-20T11:30:42;15.13;;;3.38;;
54452;SDS011;40363;52.270;10.546;2023-12-20T11:33:12;3.25;;;2.17;;
54452;SDS011;40363;52.270;10.546;2023-12-20T11:35:39;5.40;;;2.30;;
54452;SDS011;40363;52.270;10.546;2023-12-20T11:38:07;4.25;;;1.73;;
54452;SDS011;40363;52.270;10.546;2023-12-20T11:40:34;8.45;;;2.97;;
54452;SDS011;40363;52.270;10.546;2023-12-20T11:43:03;7.05;;;2.53;;
54452;SDS011;40363;52.270;10.546;2023-12-20T11:45:30;10.38;;;2.58;;
54452;SDS011;40363;52.270;10.546;2023-12-20T11:47:57;7.00;;;2.50;;
54452;SDS011;40363;52.270;10.546;2023-12-20T11:50:24;5.05;;;2.33;;
54452;SDS011;40363;52.270;10.546;2023-12-20T11:52:51;5.50;;;2.45;;
54452;SDS011;40363;52.270;10.546;2023-12-20T11:55:20;6.40;;;2.17;;
54452;SDS011;40363;52.270;10.546;2023-12-20T11:57:47;7.60;;;2.67;;
54452;SDS011;40363;52.270;10.546;2023-12-20T12:00:15;3.47;;;1.98;;
54452;SDS011;40363;52.270;10.546;2023-12-20T12:02:45;4.80;;;2.05;;
54452;SDS011;40363;52.270;10.546;2023-12-20T12:05:21;4.07;;;2.67;;
54452;SDS011;40363;52.270;10.546;2023-12-20T12:07:48;8.35;;;3.08;;
54452;SDS011;40363;52.270;10.546;2023-12-20T12:10:14;3.58;;;1.88;;
54452;SDS011;40363;52.270;10.546;2023-12-20T12:12:41;5.75;;;2.13;;
54452;SDS011;40363;52.270;10.546;2023-12-20T12:15:08;6.72;;;2.13;;
54452;SDS011;40363;52.270;10.546;2023-12-20T12:17:36;6.68;;;2.35;;
54452;SDS011;40363;52.270;10.546;2023-12-20T12:20:04;6.13;;;2.85;;
54452;SDS011;40363;52.270;10.546;2023-12-20T12:22:31;3.28;;;1.90;;
54452;SDS011;40363;52.270;10.546;2023-12-20T12:24:59;6.25;;;2.67;;
54452;SDS011;40363;52.270;10.546;2023-12-20T12:27:27;4.10;;;2.25;;
54452;SDS011;40363;52.270;10.546;2023-12-20T12:30:00;5.78;;;2.05;;
54452;SDS011;40363;52.270;10.546;2023-12-20T12:32:28;2.25;;;1.60;;
54452;SDS011;40363;52.270;10.546;2023-12-20T12:34:56;4.07;;;1.70;;
54452;SDS011;40363;52.270;10.546;2023-12-20T12:37:23;3.90;;;1.90;;
54452;SDS011;40363;52.270;10.546;2023-12-20T12:39:53;5.35;;;1.67;;
54452;SDS011;40363;52.270;10.546;2023-12-20T12:42:20;5.78;;;2.13;;
54452;SDS011;40363;52.270;10.546;2023-12-20T12:44:50;5.35;;;1.70;;
54452;SDS011;40363;52.270;10.546;2023-12-20T12:47:17;4.53;;;1.85;;
54452;SDS011;40363;52.270;10.546;2023-12-20T12:49:44;6.28;;;1.83;;
54452;SDS011;40363;52.270;10.546;2023-12-20T12:52:12;4.15;;;1.52;;
54452;SDS011;40363;52.270;10.546;2023-12-20T12:54:39;5.07;;;1.00;;
54452;SDS011;40363;52.270;10.546;2023-12-20T12:57:06;3.92;;;1.50;;
54452;SDS011;40363;52.270;10.546;2023-12-20T12:59:33;1.63;;;0.85;;
54452;SDS011;40363;52.270;10.546;2023-12-20T13:02:00;3.40;;;0.65;;
54452;SDS011;40363;52.270;10.546;2023-12-20T13:04:26;0.85;;;0.70;;
54452;SDS011;40363;52.270;10.546;2023-12-20T13:06:53;6.10;;;0.63;;
54452;SDS011;40363;52.270;10.546;2023-12-20T13:09:21;4.05;;;0.50;;
54452;SDS011;40363;52.270;10.546;2023-12-20T13:11:48;1.10;;;0.50;;
54452;SDS011;40363;52.270;10.546;2023-12-20T13:14:15;3.08;;;1.00;;
54452;SDS011;40363;52.270;10.546;2023-12-20T13:16:41;1.98;;;0.88;;
54452;SDS011;40363;52.270;10.546;2023-12-20T13:19:10;2.13;;;0.50;;
54452;SDS011;40363;52.270;10.546;2023-12-20T13:21:36;2.72;;;0.68;;
54452;SDS011;40363;52.270;10.546;2023-12-20T13:24:05;2.15;;;0.50;;
54452;SDS011;40363;52.270;10.546;2023-12-20T13:26:33;2.92;;;0.60;;
54452;SDS011;40363;52.270;10.546;2023-12-20T13:29:00;2.05;;;0.60;;
54452;SDS011;40363;52.270;10.546;2023-12-20T13:31:26;3.80;;;0.75;;
54452;SDS011;40363;52.270;10.546;2023-12-20T13:33:53;3.45;;;0.50;;
54452;SDS011;40363;52.270;10.546;2023-12-20T13:36:20;5.32;;;0.90;;
54452;SDS011;40363;52.270;10.546;2023-12-20T13:38:46;3.45;;;0.40;;
54452;SDS011;40363;52.270;10.546;2023-12-20T13:41:13;0.47;;;0.38;;
54452;SDS011;40363;52.270;10.546;2023-12-20T13:43:41;2.05;;;0.32;;
54452;SDS011;40363;52.270;10.546;2023-12-20T13:46:08;2.38;;;0.47;;
54452;SDS011;40363;52.270;10.546;2023-12-20T13:48:35;1.38;;;0.65;;
54452;SDS011;40363;52.270;10.546;2023-12-20T13:51:03;1.77;;;0.60;;
54452;SDS011;40363;52.270;10.546;2023-12-20T13:53:30;1.88;;;0.65;;
54452;SDS011;40363;52.270;10.546;2023-12-20T13:55:57;2.95;;;0.43;;
54452;SDS011;40363;52.270;10.546;2023-12-20T13:58:25;2.25;;;0.93;;
54452;SDS011;40363;52.270;10.546;2023-12-20T14:00:53;3.30;;;0.57;;
54452;SDS011;40363;52.270;10.546;2023-12-20T14:03:19;2.70;;;0.77;;
54452;SDS011;40363;52.270;10.546;2023-12-20T14:05:46;5.00;;;0.63;;
54452;SDS011;40363;52.270;10.546;2023-12-20T14:08:13;5.72;;;1.13;;
54452;SDS011;40363;52.270;10.546;2023-12-20T14:10:40;1.10;;;0.55;;
54452;SDS011;40363;52.270;10.546;2023-12-20T14:13:06;2.05;;;0.50;;
54452;SDS011;40363;52.270;10.546;2023-12-20T14:15:33;1.27;;;0.65;;
54452;SDS011;40363;52.270;10.546;2023-12-20T14:18:04;1.08;;;0.68;;
54452;SDS011;40363;52.270;10.546;2023-12-20T14:20:33;2.08;;;0.55;;
54452;SDS011;40363;52.270;10.546;2023-12-20T14:23:04;1.13;;;0.40;;
54452;SDS011;40363;52.270;10.546;2023-12-20T14:25:31;2.60;;;0.50;;
54452;SDS011;40363;52.270;10.546;2023-12-20T14:27:58;3.55;;;0.63;;
54452;SDS011;40363;52.270;10.546;2023-12-20T14:30:25;1.10;;;0.28;;
54452;SDS011;40363;52.270;10.546;2023-12-20T14:32:51;2.30;;;0.45;;
54452;SDS011;40363;52.270;10.546;2023-12-20T14:35:19;1.85;;;0.60;;
54452;SDS011;40363;52.270;10.546;2023-12-20T14:37:46;3.05;;;0.60;;